Time;durP1;ratioP1;P1;durP2;ratioP2;P2;SDS_P1;SDS_P2;PMS_P1;PMS_P2;Temp;Humidity;BMP_temperature;BMP_pressure;BME280_temperature;BME280_humidity;BME280_pressure;Samples;Min_cycle;Max_cycle;Signal;HPM_P1;HPM_P2
2022/05/05 00:02:14;;;;;;;;;16.33;13.00;;;;;18.27;51.04;101777.63;5082333;27;45383;-90
2022/05/05 00:04:40;;;;;;;;;13.33;12.00;;;;;18.14;51.00;101761.25;5100503;27;45383;-90
2022/05/05 00:07:05;;;;;;;;;10.00;7.67;;;;;18.35;50.70;101803.19;5099775;27;45403;-90
2022/05/05 00:09:30;;;;;;;;;12.67;12.67;;;;;17.60;50.85;101688.88;5081943;27;45400;-90
2022/05/05 00:14:40;;;;;;;;;14.33;11.67;;;;;18.01;50.95;101768.38;5099907;27;45421;-90
2022/05/05 00:17:08;;;;;;;;;13.67;11.67;;;;;17.91;51.36;101771.59;5081347;27;47309;-90
2022/05/05 00:19:36;;;;;;;;;13.00;13.00;;;;;17.52;51.37;101707.31;5099692;27;45424;-90
2022/05/05 00:22:04;;;;;;;;;16.00;11.67;;;;;18.07;51.33;101803.91;5081239;27;45355;-90
2022/05/05 00:24:29;;;;;;;;;13.00;12.67;;;;;18.08;51.26;101811.06;5100100;27;45563;-90
2022/05/05 00:26:55;;;;;;;;;11.67;11.67;;;;;17.50;51.11;101720.03;5080857;27;47084;-90
2022/05/05 00:29:20;;;;;;;;;10.67;10.67;;;;;17.98;51.10;101804.50;5099562;27;45408;-90
2022/05/05 00:31:47;;;;;;;;;11.67;11.67;;;;;17.39;50.84;101719.75;5081123;27;45418;-90
2022/05/05 00:34:12;;;;;;;;;12.67;10.33;;;;;17.61;51.02;101767.94;5099950;27;45579;-90
2022/05/05 00:36:38;;;;;;;;;10.00;8.67;;;;;17.82;50.74;101806.31;5080941;27;46877;-90
2022/05/05 00:39:05;;;;;;;;;10.67;8.33;;;;;17.77;50.80;101809.25;5099373;27;45554;-90
2022/05/05 00:41:37;;;;;;;;;9.33;6.00;;;;;17.71;50.62;101802.34;5099634;27;45471;-90
2022/05/05 00:44:04;;;;;;;;;5.00;5.00;;;;;17.43;50.18;101780.63;5099196;27;45461;-90
2022/05/05 00:46:31;;;;;;;;;7.00;7.00;;;;;17.64;50.55;101814.44;5099170;27;45369;-90
2022/05/05 00:48:56;;;;;;;;;7.33;5.67;;;;;17.33;49.90;101765.94;5080715;27;45382;-90
2022/05/05 00:51:22;;;;;;;;;6.00;5.67;;;;;17.05;50.19;101727.91;5081344;27;45341;-90
2022/05/05 00:53:48;;;;;;;;;8.67;6.33;;;;;17.25;49.76;101750.16;5098932;27;45512;-91
2022/05/05 00:56:14;;;;;;;;;7.67;6.33;;;;;17.61;49.95;101820.03;5098231;27;45551;-90
2022/05/05 00:58:42;;;;;;;;;6.33;4.67;;;;;16.96;50.01;101723.03;5098732;27;45495;-90
2022/05/05 01:01:09;;;;;;;;;6.00;5.67;;;;;16.79;49.58;101682.69;5080955;27;45403;-90
2022/05/05 01:03:36;;;;;;;;;8.33;5.33;;;;;17.51;49.58;101808.91;5081067;27;45534;-90
2022/05/05 01:06:02;;;;;;;;;7.67;6.00;;;;;16.98;50.05;101721.13;5080392;27;48233;-90
2022/05/05 01:08:28;;;;;;;;;7.00;7.00;;;;;16.95;49.66;101736.56;5098995;27;45310;-90
2022/05/05 01:10:53;;;;;;;;;8.33;8.33;;;;;16.94;50.00;101734.84;5080806;27;45380;-90
2022/05/05 01:13:19;;;;;;;;;9.67;8.67;;;;;16.91;50.34;101732.31;5099211;27;45590;-90
2022/05/05 01:15:45;;;;;;;;;6.67;6.67;;;;;17.17;50.25;101780.22;5080297;27;47749;-90
2022/05/05 01:18:10;;;;;;;;;7.67;6.33;;;;;16.56;50.02;101671.31;5098735;27;45428;-90
2022/05/05 01:20:48;;;;;;;;;8.00;6.67;;;;;17.35;50.45;101818.78;5099045;27;45324;-90
2022/05/05 01:23:14;;;;;;;;;8.00;8.00;;;;;16.61;50.21;101695.28;5080745;27;45432;-90
2022/05/05 01:28:24;;;;;;;;;10.00;8.00;;;;;17.32;50.07;101810.84;5098904;27;45524;-90
2022/05/05 01:30:50;;;;;;;;;8.67;6.00;;;;;16.83;50.24;101736.31;5080733;27;45385;-90
2022/05/05 01:33:16;;;;;;;;;7.00;6.33;;;;;17.31;49.90;101817.19;5083282;27;45416;-91
2022/05/05 01:35:44;;;;;;;;;6.00;6.00;;;;;17.21;50.01;101802.50;5100484;27;45520;-90
2022/05/05 01:38:11;;;;;;;;;4.67;3.33;;;;;17.07;50.31;101787.97;5099004;27;45503;-90
2022/05/05 01:40:39;;;;;;;;;8.00;6.67;;;;;16.71;50.50;101718.06;5080165;27;45413;-90
2022/05/05 01:43:07;;;;;;;;;10.00;8.00;;;;;17.22;50.30;101804.22;5080396;27;45639;-90
2022/05/05 01:45:33;;;;;;;;;8.00;7.00;;;;;17.00;50.60;101772.22;5080142;27;48566;-90
2022/05/05 01:47:58;;;;;;;;;6.33;6.33;;;;;16.55;50.85;101709.06;5079873;27;45443;-90
2022/05/05 01:50:25;;;;;;;;;5.00;5.00;;;;;17.13;50.40;101810.13;5080167;27;45930;-90
2022/05/05 01:52:51;;;;;;;;;10.67;7.00;;;;;16.90;50.41;101776.34;5080464;27;45417;-90
2022/05/05 01:55:17;;;;;;;;;7.67;7.00;;;;;16.32;50.59;101689.66;5079266;27;47379;-90
2022/05/05 01:57:42;;;;;;;;;8.33;7.33;;;;;17.03;50.64;101805.22;5079547;27;45490;-90
2022/05/05 02:00:08;;;;;;;;;7.33;7.33;;;;;16.93;50.53;101792.31;5080202;27;45427;-90
2022/05/05 02:02:33;;;;;;;;;6.00;6.00;;;;;16.15;50.63;101674.38;5080422;27;45555;-90
2022/05/05 02:04:59;;;;;;;;;8.00;8.00;;;;;16.29;50.64;101703.25;5098023;27;46012;-90
2022/05/05 02:07:24;;;;;;;;;5.33;5.33;;;;;16.79;50.60;101793.09;5079883;27;45362;-90
2022/05/05 02:09:49;;;;;;;;;8.67;8.67;;;;;16.11;50.92;101683.56;5097547;27;45814;-90
2022/05/05 02:12:15;;;;;;;;;8.33;6.67;;;;;15.96;50.78;101654.78;5080014;27;45582;-90
2022/05/05 02:14:40;;;;;;;;;6.00;6.00;;;;;16.62;50.73;101773.28;5079496;27;47292;-89
2022/05/05 02:17:06;;;;;;;;;6.67;6.00;;;;;15.92;50.44;101662.13;5079707;27;45857;-90
2022/05/05 02:19:31;;;;;;;;;7.33;5.67;;;;;16.25;50.72;101726.75;5098046;27;45409;-90
2022/05/05 02:21:57;;;;;;;;;6.33;6.33;;;;;16.25;50.69;101740.22;5098234;27;45396;-90
2022/05/05 02:24:22;;;;;;;;;5.00;5.00;;;;;16.25;50.70;101729.44;5079329;27;48278;-90
2022/05/05 02:26:48;;;;;;;;;9.00;8.33;;;;;16.16;50.70;101715.59;5098097;27;45385;-90
2022/05/05 02:29:14;;;;;;;;;6.00;6.00;;;;;16.70;50.55;101805.19;5079788;27;45406;-90
2022/05/05 02:31:39;;;;;;;;;8.67;8.67;;;;;16.33;51.06;101758.63;5097802;27;45525;-91
2022/05/05 02:34:08;;;;;;;;;6.33;6.00;;;;;16.14;50.93;101728.25;5097902;27;46005;-90
2022/05/05 02:39:18;;;;;;;;;9.00;7.33;;;;;16.53;50.80;101772.88;5097729;27;45327;-90
2022/05/05 02:41:43;;;;;;;;;8.67;7.67;;;;;15.88;50.87;101668.63;5079546;27;45490;-90
2022/05/05 02:44:08;;;;;;;;;9.33;8.00;;;;;15.97;50.79;101686.97;5097619;27;46096;-90
2022/05/05 02:46:34;;;;;;;;;10.00;9.33;;;;;15.98;51.24;101690.53;5097662;27;45313;-90
2022/05/05 02:49:00;;;;;;;;;11.33;10.00;;;;;16.05;51.03;101708.09;5097639;27;45319;-90
2022/05/05 02:51:25;;;;;;;;;11.00;9.00;;;;;16.32;51.12;101762.28;5098193;27;45222;-90
2022/05/05 02:56:34;;;;;;;;;11.33;9.33;;;;;15.87;51.40;101692.88;5097521;27;45409;-90
2022/05/05 02:59:00;;;;;;;;;7.67;6.67;;;;;15.65;51.28;101656.31;5079240;27;45447;-90
2022/05/05 03:01:25;;;;;;;;;5.33;4.67;;;;;15.34;51.65;101596.06;5079745;27;45364;-90
2022/05/05 03:03:50;;;;;;;;;10.00;8.33;;;;;16.04;51.70;101728.72;5079217;27;47878;-90
2022/05/05 03:06:16;;;;;;;;;8.33;7.67;;;;;15.93;51.63;101717.66;5080073;27;45256;-90
2022/05/05 03:08:41;;;;;;;;;10.67;9.67;;;;;16.00;51.66;101718.22;5097981;27;45431;-90
2022/05/05 03:11:06;;;;;;;;;11.67;9.67;;;;;16.31;51.85;101779.38;5079355;27;45646;-90
2022/05/05 03:13:32;;;;;;;;;9.00;6.67;;;;;16.19;51.87;101762.03;5079133;27;47910;-90
2022/05/05 03:15:57;;;;;;;;;12.33;11.00;;;;;16.41;52.33;101802.19;5097239;27;45411;-90
2022/05/05 03:18:22;;;;;;;;;14.00;10.67;;;;;15.77;51.98;101696.03;5099208;27;45295;-90
2022/05/05 03:20:48;;;;;;;;;9.00;9.00;;;;;15.91;52.53;101726.75;5101267;27;45183;-90
2022/05/05 03:23:14;;;;;;;;;12.00;8.50;;;;;15.89;52.55;101731.31;5100601;27;45574;-90
2022/05/05 03:25:39;;;;;;;;;9.33;8.00;;;;;15.83;52.55;101728.00;5081944;27;45495;-90
2022/05/05 03:28:05;;;;;;;;;12.67;9.67;;;;;16.03;52.51;101756.56;5082451;27;45462;-83
2022/05/05 03:30:30;;;;;;;;;10.67;9.33;;;;;15.99;52.65;101754.09;5100698;27;45579;-83
2022/05/05 03:32:55;;;;;;;;;10.67;8.33;;;;;15.96;52.81;101744.38;5100378;27;45471;-83
2022/05/05 03:35:21;;;;;;;;;11.00;11.00;;;;;15.75;52.82;101714.06;5082098;27;45435;-82
2022/05/05 03:37:46;;;;;;;;;10.67;9.67;;;;;15.41;52.97;101667.34;5100109;27;45512;-82
2022/05/05 03:40:12;;;;;;;;;8.67;8.67;;;;;16.20;53.17;101804.16;5082443;27;45591;-83
2022/05/05 03:42:37;;;;;;;;;10.33;10.00;;;;;16.18;53.43;101808.72;5081443;27;47918;-82
2022/05/05 03:45:03;;;;;;;;;9.33;8.00;;;;;15.99;53.63;101784.56;5100076;27;45478;-83
2022/05/05 03:47:28;;;;;;;;;12.00;10.33;;;;;15.55;53.62;101703.41;5100389;27;45342;-83
2022/05/05 03:49:54;;;;;;;;;11.67;11.00;;;;;16.10;53.27;101793.91;5100450;27;45411;-83
2022/05/05 03:52:19;;;;;;;;;10.00;8.33;;;;;16.02;53.57;101779.03;5099823;27;46661;-83
2022/05/05 03:54:44;;;;;;;;;7.67;7.67;;;;;15.83;53.57;101748.63;5081466;27;45693;-83
2022/05/05 03:57:09;;;;;;;;;10.00;9.33;;;;;16.25;53.54;101811.97;5100112;27;45361;-83
2022/05/05 03:59:35;;;;;;;;;8.67;8.67;;;;;16.15;53.34;101797.22;5100120;27;45587;-83
2022/05/05 04:02:00;;;;;;;;;13.67;11.67;;;;;15.94;53.71;101765.06;5081859;27;47285;-83
2022/05/05 04:04:26;;;;;;;;;11.00;9.67;;;;;15.58;53.65;101704.09;5099979;27;45354;-83
2022/05/05 04:06:51;;;;;;;;;11.33;11.33;;;;;15.17;53.57;101658.66;5099453;27;45303;-83
2022/05/05 04:09:16;;;;;;;;;14.67;12.00;;;;;15.21;53.70;101643.25;5100543;27;45450;-83
2022/05/05 04:11:42;;;;;;;;;9.67;8.67;;;;;16.19;53.70;101817.66;5099701;27;46114;-83
2022/05/05 04:14:07;;;;;;;;;11.33;8.33;;;;;15.70;53.91;101742.09;5099944;27;45363;-83
2022/05/05 04:16:32;;;;;;;;;9.33;9.33;;;;;16.24;53.73;101818.28;5100149;27;45261;-82
2022/05/05 04:19:01;;;;;;;;;11.00;9.33;;;;;15.63;53.97;101728.06;5100214;27;45287;-83
2022/05/05 04:21:26;;;;;;;;;10.00;9.33;;;;;15.61;53.78;101714.69;5099660;27;45438;-83
2022/05/05 04:23:52;;;;;;;;;12.33;9.67;;;;;15.73;53.96;101742.84;5099170;27;45374;-83
2022/05/05 04:26:18;;;;;;;;;7.67;7.67;;;;;15.76;53.56;101761.50;5081724;27;45387;-83
2022/05/05 04:28:46;;;;;;;;;10.67;9.33;;;;;16.00;53.69;101797.06;5099288;27;45598;-83
2022/05/05 04:31:14;;;;;;;;;8.67;7.33;;;;;15.70;53.91;101748.34;5098821;27;45299;-83
2022/05/05 04:33:40;;;;;;;;;10.33;9.00;;;;;16.18;53.58;101832.06;5099233;27;46027;-83
2022/05/05 04:36:06;;;;;;;;;10.33;8.33;;;;;16.22;53.84;101830.94;5080967;27;45376;-83
2022/05/05 04:38:31;;;;;;;;;10.33;9.00;;;;;15.82;53.79;101769.25;5100183;27;45485;-82
2022/05/05 04:40:57;;;;;;;;;11.00;8.67;;;;;15.65;53.63;101739.63;5098914;27;47519;-83
2022/05/05 04:43:22;;;;;;;;;10.33;10.33;;;;;16.22;54.15;101845.28;5099314;27;47701;-83
2022/05/05 04:45:47;;;;;;;;;11.67;8.33;;;;;15.66;53.97;101757.47;5099214;27;45714;-83
2022/05/05 04:48:13;;;;;;;;;12.00;9.67;;;;;16.12;54.11;101835.06;5099714;27;45392;-83
2022/05/05 04:50:38;;;;;;;;;12.00;10.00;;;;;15.89;54.44;101794.03;5098524;27;45436;-83
2022/05/05 04:53:03;;;;;;;;;11.00;10.67;;;;;15.85;54.77;101796.94;5099073;27;45545;-83
2022/05/05 04:55:29;;;;;;;;;10.67;10.67;;;;;15.43;54.81;101725.47;5099572;27;45431;-83
2022/05/05 04:57:54;;;;;;;;;9.00;9.00;;;;;16.01;54.83;101830.19;5098985;27;45538;-83
2022/05/05 05:00:20;;;;;;;;;15.67;14.33;;;;;16.19;54.99;101850.81;5099067;27;46016;-83
2022/05/05 05:02:45;;;;;;;;;13.33;13.33;;;;;15.55;55.17;101754.47;5098888;27;45391;-83
2022/05/05 05:05:11;;;;;;;;;16.33;14.33;;;;;16.18;55.42;101854.44;5098918;27;45388;-83
2022/05/05 05:07:36;;;;;;;;;14.00;11.00;;;;;16.06;55.33;101824.59;5099206;27;45392;-83
2022/05/05 05:10:01;;;;;;;;;16.67;14.00;;;;;16.23;55.67;101854.22;5099000;27;46342;-83
2022/05/05 05:12:27;;;;;;;;;12.00;10.67;;;;;16.22;55.87;101852.47;5099067;27;45388;-83
2022/05/05 05:14:52;;;;;;;;;17.67;14.33;;;;;16.11;56.04;101844.94;5098747;27;45352;-83
2022/05/05 05:17:18;;;;;;;;;16.00;12.33;;;;;16.16;55.75;101853.66;5099257;27;45267;-83
2022/05/05 05:19:43;;;;;;;;;15.00;14.67;;;;;16.21;55.75;101866.88;5098228;27;45557;-83
2022/05/05 05:22:09;;;;;;;;;19.67;16.00;;;;;16.20;55.94;101868.69;5080142;27;45924;-82
2022/05/05 05:24:34;;;;;;;;;17.67;16.67;;;;;16.19;56.42;101860.69;5098768;27;45279;-83
2022/05/05 05:26:59;;;;;;;;;15.33;14.00;;;;;16.24;56.42;101877.47;5098991;27;45479;-83
2022/05/05 05:29:25;;;;;;;;;18.00;15.67;;;;;15.90;56.13;101828.03;5098810;27;46428;-83
2022/05/05 05:31:50;;;;;;;;;16.00;14.33;;;;;16.25;55.98;101880.09;5098105;27;45404;-83
2022/05/05 05:34:15;;;;;;;;;18.67;17.33;;;;;16.28;56.55;101881.75;5098427;27;45360;-83
2022/05/05 05:36:41;;;;;;;;;19.33;16.00;;;;;15.69;56.42;101778.84;5080362;27;45357;-83
2022/05/05 05:39:06;;;;;;;;;20.00;17.00;;;;;16.24;56.39;101875.66;5098364;27;45655;-83
2022/05/05 05:41:31;;;;;;;;;18.67;17.33;;;;;15.93;56.81;101818.94;5098095;27;45378;-83
2022/05/05 05:43:57;;;;;;;;;18.33;16.67;;;;;16.31;56.63;101875.34;5098165;27;45420;-83
2022/05/05 05:46:22;;;;;;;;;19.67;17.33;;;;;16.37;56.62;101880.44;5098838;27;45433;-83
2022/05/05 05:48:47;;;;;;;;;17.67;17.33;;;;;15.80;56.43;101783.72;5098086;27;46026;-82
2022/05/05 05:51:13;;;;;;;;;15.00;15.00;;;;;15.99;56.57;101810.56;5097967;27;48620;-83
2022/05/05 05:53:39;;;;;;;;;19.67;15.67;;;;;16.40;56.49;101885.66;5098056;27;45381;-82
2022/05/05 05:56:04;;;;;;;;;18.33;17.33;;;;;16.03;56.80;101809.47;5098341;27;45557;-83
2022/05/05 05:58:29;;;;;;;;;21.67;17.33;;;;;15.66;56.58;101737.78;5098109;27;46373;-83
2022/05/05 06:00:55;;;;;;;;;20.00;18.33;;;;;16.50;56.57;101878.00;5097770;27;45239;-83
2022/05/05 06:06:04;;;;;;;;;15.67;15.67;;;;;16.22;56.72;101829.16;5098828;27;45306;-90
2022/05/05 06:08:30;;;;;;;;;22.00;19.00;;;;;16.43;56.46;101867.53;5079725;27;47645;-90
2022/05/05 06:10:56;;;;;;;;;18.00;17.00;;;;;16.61;56.28;101886.41;5098771;27;45297;-88
2022/05/05 06:13:21;;;;;;;;;17.33;17.33;;;;;16.08;56.60;101803.88;5100422;27;45301;-87
2022/05/05 06:15:46;;;;;;;;;17.67;15.67;;;;;15.90;56.31;101771.59;5081864;27;45230;-90
2022/05/05 06:18:12;;;;;;;;;16.67;16.67;;;;;15.95;56.39;101769.53;5097974;27;45261;-90
2022/05/05 06:20:37;;;;;;;;;19.00;19.00;;;;;16.76;56.49;101906.28;5098168;27;45348;-90
2022/05/05 06:23:03;;;;;;;;;24.33;18.67;;;;;16.78;56.73;101902.56;5079475;27;45451;-90
2022/05/05 06:25:28;;;;;;;;;17.33;16.67;;;;;16.58;56.55;101873.13;5080041;27;45380;-90
2022/05/05 06:27:56;;;;;;;;;25.67;22.33;;;;;16.44;56.57;101839.69;5097784;27;46062;-90
2022/05/05 06:30:22;;;;;;;;;24.00;19.33;;;;;16.32;56.56;101823.28;5097856;27;45493;-90
2022/05/05 06:32:47;;;;;;;;;19.00;17.00;;;;;16.41;56.34;101839.84;5079548;27;45893;-89
2022/05/05 06:35:12;;;;;;;;;25.00;21.33;;;;;16.44;56.27;101850.44;5098040;27;45596;-90
2022/05/05 06:37:38;;;;;;;;;20.33;19.67;;;;;16.85;56.69;101897.75;5079475;27;47209;-91
2022/05/05 06:40:05;;;;;;;;;22.67;19.33;;;;;16.99;56.70;101919.47;5097914;27;45477;-90
2022/05/05 06:42:30;;;;;;;;;18.33;17.00;;;;;17.02;56.46;101919.31;5079750;27;45485;-90
2022/05/05 06:44:56;;;;;;;;;23.67;17.33;;;;;17.05;56.48;101920.97;5079426;27;45294;-90
2022/05/05 06:47:22;;;;;;;;;17.33;17.00;;;;;16.36;56.60;101809.59;5097879;27;46401;-90
2022/05/05 06:49:47;;;;;;;;;25.33;19.33;;;;;16.89;56.42;101888.59;5079495;27;45410;-90
2022/05/05 06:52:13;;;;;;;;;19.33;18.00;;;;;17.09;56.52;101923.44;5079527;27;45447;-91
2022/05/05 06:54:38;;;;;;;;;14.33;14.33;;;;;16.55;56.73;101836.47;5101493;27;45355;-91
2022/05/05 06:57:04;;;;;;;;;19.33;18.33;;;;;16.61;56.38;101854.97;5101122;27;45448;-90
2022/05/05 06:59:30;;;;;;;;;13.33;13.00;;;;;16.49;56.14;101817.06;5101122;27;45600;-83
2022/05/05 07:02:00;;;;;;;;;20.67;17.33;;;;;16.76;56.35;101858.69;5101159;27;45473;-83
2022/05/05 07:07:13;;;;;;;;;17.00;17.00;;;;;17.15;56.08;101935.69;5100846;27;45530;-83
2022/05/05 07:12:24;;;;;;;;;20.33;20.33;;;;;16.83;56.30;101867.34;5100743;27;45267;-83
2022/05/05 07:14:49;;;;;;;;;20.67;20.00;;;;;16.59;56.39;101829.09;5101017;27;45326;-90
2022/05/05 07:17:15;;;;;;;;;19.00;17.33;;;;;17.31;56.24;101943.84;5082546;27;47994;-90
2022/05/05 07:19:41;;;;;;;;;17.67;17.67;;;;;17.37;56.23;101940.84;5082542;27;45362;-83
2022/05/05 07:22:07;;;;;;;;;23.33;18.33;;;;;16.87;56.02;101856.34;5100755;27;45466;-83
2022/05/05 07:24:33;;;;;;;;;22.00;18.33;;;;;17.43;55.68;101945.03;5100898;27;45558;-83
2022/05/05 07:26:59;;;;;;;;;15.00;15.00;;;;;17.40;55.67;101927.19;5100621;27;45475;-83
2022/05/05 07:29:25;;;;;;;;;19.67;14.67;;;;;17.27;55.64;101905.41;5100315;27;45428;-83
2022/05/05 07:31:50;;;;;;;;;15.67;15.67;;;;;17.56;55.74;101929.94;5100429;27;45527;-83
2022/05/05 07:34:16;;;;;;;;;19.67;16.33;;;;;17.39;55.60;101881.47;5100790;27;45433;-83
2022/05/05 07:36:42;;;;;;;;;19.00;17.67;;;;;17.89;55.09;101951.53;5081974;27;45998;-83
2022/05/05 07:39:07;;;;;;;;;19.00;19.00;;;;;17.98;54.34;101958.25;5100539;27;45331;-83
2022/05/05 07:41:33;;;;;;;;;14.33;14.33;;;;;17.59;54.72;101858.81;5081914;27;45475;-83
2022/05/05 07:44:00;;;;;;;;;19.00;14.33;;;;;17.71;54.09;101847.34;5100430;27;45365;-83
2022/05/05 07:46:26;;;;;;;;;18.67;14.67;;;;;17.88;53.75;101849.09;5100058;27;46345;-84
2022/05/05 07:48:52;;;;;;;;;22.67;18.33;;;;;18.15;53.76;101881.75;5100142;27;45376;-84
2022/05/05 07:51:17;;;;;;;;;16.67;13.33;;;;;18.31;53.40;101896.09;5100356;27;45325;-84
2022/05/05 07:54:34;;;;;;;;;20.00;17.67;;;;;18.36;52.88;101893.13;5081852;27;45415;-84
2022/05/05 07:56:28;;;;;;;;;19.00;18.67;;;;;18.40;52.32;101901.91;5093952;27;46027;-84
2022/05/05 07:58:53;;;;;;;;;22.33;19.00;;;;;18.08;52.21;101821.00;5078814;28;45311;-83
2022/05/05 08:01:19;;;;;;;;;21.33;19.33;;;;;18.62;51.82;101906.94;5061798;28;45317;-90
2022/05/05 08:03:44;;;;;;;;;17.33;16.33;;;;;18.92;51.97;101953.78;5079685;28;45559;-90
2022/05/05 08:06:09;;;;;;;;;22.33;20.00;;;;;18.51;51.42;101885.97;5079863;28;46577;-83
2022/05/05 08:08:34;;;;;;;;;13.00;11.00;;;;;18.96;51.83;101962.53;5079365;27;45425;-83
2022/05/05 08:11:00;;;;;;;;;19.00;14.33;;;;;18.13;51.44;101795.47;5079484;28;45292;-83
2022/05/05 08:13:25;;;;;;;;;23.67;15.67;;;;;18.82;51.90;101893.13;5079475;28;45215;-84
2022/05/05 08:15:50;;;;;;;;;16.67;15.67;;;;;19.22;51.29;101952.88;5060960;28;46007;-83
2022/05/05 08:18:16;;;;;;;;;17.00;15.33;;;;;19.03;50.94;101904.47;5079411;27;45290;-83
2022/05/05 08:20:41;;;;;;;;;15.00;13.67;;;;;19.10;50.88;101895.03;5079280;28;45288;-83
2022/05/05 08:23:06;;;;;;;;;14.33;13.67;;;;;19.34;50.63;101918.84;5079593;27;45227;-83
2022/05/05 08:28:33;;;;;;;;;15.33;13.67;;;;;19.43;49.94;101880.38;5079052;28;45305;-84
2022/05/05 08:30:59;;;;;;;;;16.00;15.00;;;;;20.03;49.64;101961.34;5061056;28;45423;-83
2022/05/05 08:33:27;;;;;;;;;21.00;15.33;;;;;20.30;49.05;101971.38;5079332;27;45394;-84
2022/05/05 08:35:57;;;;;;;;;16.00;15.00;;;;;19.87;48.13;101865.03;5078821;27;46741;-84
2022/05/05 08:38:23;;;;;;;;;12.33;12.33;;;;;20.47;48.38;101962.13;5079058;28;45424;-83
2022/05/05 08:40:48;;;;;;;;;14.33;11.33;;;;;20.73;48.14;101949.59;5060750;28;45457;-83
2022/05/05 08:43:14;;;;;;;;;16.00;14.00;;;;;20.52;47.45;101881.44;5079112;27;45376;-84
2022/05/05 08:45:40;;;;;;;;;14.00;12.33;;;;;21.01;46.56;101967.56;5060493;28;46989;-90
2022/05/05 08:48:07;;;;;;;;;14.67;11.67;;;;;20.88;46.66;101955.81;5060946;28;45365;-91
2022/05/05 08:50:34;;;;;;;;;12.33;10.67;;;;;21.03;46.50;101972.88;5079201;27;45303;-91
2022/05/05 08:53:02;;;;;;;;;10.67;9.67;;;;;21.14;45.86;101969.41;5079403;28;45361;-84
2022/05/05 08:55:27;;;;;;;;;12.33;10.67;;;;;20.81;46.16;101874.09;5077920;28;45623;-83
2022/05/05 08:57:53;;;;;;;;;12.67;11.00;;;;;21.59;45.27;101969.94;5078008;27;45472;-84
2022/05/05 09:00:19;;;;;;;;;11.00;11.00;;;;;21.80;44.75;101970.28;5078773;28;45515;-83
2022/05/05 09:02:45;;;;;;;;;13.67;10.00;;;;;21.66;44.93;101957.69;5060519;28;45612;-83
2022/05/05 09:05:11;;;;;;;;;12.67;11.33;;;;;21.59;44.26;101953.66;5078412;28;45321;-83
2022/05/05 09:07:52;;;;;;;;;10.67;10.67;;;;;21.35;44.37;101934.50;5078115;27;45564;-84
2022/05/05 09:10:21;;;;;;;;;8.67;8.00;;;;;21.65;44.77;101974.91;5060023;27;45396;-84
2022/05/05 09:13:00;;;;;;;;;10.00;9.00;;;;;21.59;44.28;101867.72;5078895;28;45526;-83
2022/05/05 09:15:31;;;;;;;;;11.00;9.33;;;;;22.75;43.11;101914.34;5077942;28;45439;-83
2022/05/05 09:18:09;;;;;;;;;7.33;7.33;;;;;24.38;40.72;101947.69;5078664;28;45325;-84
2022/05/05 09:20:35;;;;;;;;;4.33;4.33;;;;;25.80;39.45;101945.50;5060242;28;45389;-84
2022/05/05 09:23:00;;;;;;;;;9.00;6.33;;;;;26.19;36.53;101828.09;5078756;28;45493;-84
2022/05/05 09:25:44;;;;;;;;;4.67;4.67;;;;;28.30;35.92;101955.72;5078222;28;45417;-84
2022/05/05 09:28:23;;;;;;;;;6.00;5.33;;;;;29.57;32.95;101942.69;5078487;27;45415;-85
2022/05/05 09:30:53;;;;;;;;;5.00;5.00;;;;;30.40;31.11;101953.03;5078048;28;45445;-85
2022/05/05 09:33:33;;;;;;;;;5.67;5.67;;;;;30.39;29.90;101962.34;5078592;28;45357;-85
2022/05/05 09:36:01;;;;;;;;;4.33;4.33;;;;;29.97;30.09;101954.03;5059909;28;47150;-85
2022/05/05 09:38:50;;;;;;;;;6.33;6.33;;;;;29.20;30.62;101959.41;5078231;28;45525;-85
2022/05/05 09:41:16;;;;;;;;;6.00;6.00;;;;;28.61;31.04;101956.25;5078087;28;45444;-84
2022/05/05 09:43:42;;;;;;;;;6.00;6.00;;;;;27.76;30.96;101925.41;5059991;28;45560;-84
2022/05/05 09:46:27;;;;;;;;;6.33;4.00;;;;;27.19;30.84;101958.25;5078166;27;45600;-91
2022/05/05 09:49:03;;;;;;;;;4.00;4.00;;;;;26.46;31.29;101919.50;5059213;28;45398;-91
2022/05/05 09:51:28;;;;;;;;;6.33;4.67;;;;;26.20;31.70;101954.69;5078272;27;45452;-92
2022/05/05 09:59:39;;;;;;;;;4.67;3.33;;;;;29.44;30.01;101873.56;5077746;27;45468;-91
2022/05/05 10:02:12;;;;;;;;;4.00;4.00;;;;;30.68;27.86;101950.84;5060047;28;45308;-91
2022/05/05 10:04:39;;;;;;;;;8.33;5.33;;;;;31.66;27.04;101932.59;5059566;28;45463;-91
2022/05/05 10:07:07;;;;;;;;;5.33;5.33;;;;;30.57;27.02;101898.88;5059467;27;48141;-91
2022/05/05 10:09:33;;;;;;;;;5.00;4.33;;;;;29.71;27.32;101923.88;5059160;28;45396;-91
2022/05/05 10:11:59;;;;;;;;;5.00;5.00;;;;;28.61;28.46;101899.53;5059735;28;45365;-91
2022/05/05 10:14:25;;;;;;;;;3.67;3.67;;;;;27.83;29.46;101892.78;5078193;27;45451;-91
2022/05/05 10:16:51;;;;;;;;;8.00;5.00;;;;;27.60;29.90;101964.38;5059406;28;47460;-92
2022/05/05 10:19:16;;;;;;;;;4.00;3.67;;;;;26.10;30.20;101823.50;5059526;28;45318;-92
2022/05/05 10:21:59;;;;;;;;;4.33;3.33;;;;;26.29;31.00;101970.25;5059322;28;45296;-91
2022/05/05 10:24:28;;;;;;;;;7.00;5.00;;;;;25.74;31.88;101962.41;5077981;27;45305;-91
2022/05/05 10:26:59;;;;;;;;;5.00;5.00;;;;;25.26;32.10;101947.50;5059004;28;47348;-91
2022/05/05 10:29:31;;;;;;;;;5.00;5.00;;;;;25.08;33.06;101967.28;5059682;28;45451;-91
2022/05/05 10:32:05;;;;;;;;;4.67;4.67;;;;;25.76;33.19;101934.97;5077556;27;45466;-91
2022/05/05 10:34:32;;;;;;;;;7.00;5.00;;;;;27.41;31.46;101902.31;5059765;28;45605;-91
2022/05/05 10:37:00;;;;;;;;;8.33;4.67;;;;;27.25;29.23;101850.06;5058856;28;47125;-92
2022/05/05 10:39:41;;;;;;;;;4.33;2.67;;;;;27.26;30.17;101943.00;5059435;28;45353;-92
2022/05/05 10:42:33;;;;;;;;;4.00;4.00;;;;;26.68;30.54;101938.41;5077793;28;45375;-91
2022/05/05 10:45:07;;;;;;;;;3.33;3.33;;;;;26.39;31.02;101949.28;5059618;28;45318;-91
2022/05/05 10:48:01;;;;;;;;;4.00;3.33;;;;;26.31;32.69;101957.31;5058872;28;48186;-91
2022/05/05 10:50:30;;;;;;;;;4.00;4.00;;;;;26.64;32.82;101936.09;5059239;28;45408;-91
2022/05/05 10:52:55;;;;;;;;;5.33;3.67;;;;;27.47;31.85;101945.53;5077134;28;45355;-91
2022/05/05 10:55:43;;;;;;;;;6.33;5.33;;;;;27.92;30.26;101875.47;5060036;28;45416;-92
2022/05/05 10:58:10;;;;;;;;;5.00;5.00;;;;;27.72;28.90;101861.84;5058684;28;47330;-92
2022/05/05 11:00:43;;;;;;;;;2.33;2.33;;;;;27.32;29.21;101890.41;5077043;28;45499;-91
2022/05/05 11:03:09;;;;;;;;;5.00;5.00;;;;;27.04;29.53;101962.44;5077420;28;45515;-92
2022/05/05 11:05:38;;;;;;;;;2.00;2.00;;;;;26.42;30.23;101946.25;5058842;28;45542;-91
2022/05/05 11:08:10;;;;;;;;;3.00;2.00;;;;;26.03;31.31;101954.34;5076930;28;46466;-92
2022/05/05 11:13:47;;;;;;;;;3.00;3.00;;;;;25.46;31.03;101899.31;5077145;28;45320;-91
2022/05/05 11:22:11;;;;;;;;;3.33;2.00;;;;;24.39;33.06;101882.13;5076784;28;45347;-90
2022/05/05 11:24:38;;;;;;;;;5.00;4.00;;;;;24.61;33.27;101951.25;5076972;28;45492;-90
2022/05/05 11:27:04;;;;;;;;;4.00;2.67;;;;;23.82;32.68;101864.22;5077349;28;45486;-90
2022/05/05 11:29:33;;;;;;;;;3.00;3.00;;;;;23.71;33.11;101873.22;5076898;28;45354;-90
2022/05/05 11:32:00;;;;;;;;;2.00;2.00;;;;;23.29;33.32;101845.75;5058653;28;45350;-90
2022/05/05 11:34:39;;;;;;;;;2.00;2.00;;;;;23.61;33.63;101934.84;5058849;28;45558;-90
2022/05/05 11:37:07;;;;;;;;;2.00;2.00;;;;;22.86;34.12;101815.66;5077104;28;45329;-90
2022/05/05 11:39:34;;;;;;;;;2.33;2.00;;;;;23.20;34.18;101878.28;5078545;28;45492;-91
2022/05/05 11:42:06;;;;;;;;;2.00;2.00;;;;;23.62;34.02;101952.91;5061873;28;45346;-91
2022/05/05 11:44:43;;;;;;;;;4.00;4.00;;;;;22.80;34.55;101808.81;5061801;28;45454;-91
2022/05/05 11:47:11;;;;;;;;;5.67;3.67;;;;;23.69;34.13;101948.69;5062189;28;45504;-90
2022/05/05 11:49:37;;;;;;;;;2.00;2.00;;;;;22.74;34.34;101810.19;5079760;27;46009;-91
2022/05/05 11:52:03;;;;;;;;;5.33;3.00;;;;;23.57;34.42;101953.25;5061839;28;45874;-90
2022/05/05 11:54:32;;;;;;;;;5.00;3.00;;;;;22.91;34.67;101881.41;5080004;28;45408;-90